createdAt,value
2023-05-14T00:01:57.126Z,100812.44
2023-05-14T00:04:25.974Z,100814.28
2023-05-14T00:06:55.540Z,100807.38
2023-05-14T00:09:24.066Z,100807.50
2023-05-14T00:11:52.617Z,100803.25
2023-05-14T00:14:21.284Z,100794.66
2023-05-14T00:16:50.448Z,100800.94
2023-05-14T00:19:19.031Z,100799.34
2023-05-14T00:21:49.302Z,100796.72
2023-05-14T00:24:18.852Z,100795.03
2023-05-14T00:26:47.343Z,100788.91
2023-05-14T00:29:15.926Z,100788.09
2023-05-14T00:31:44.495Z,100783.78
2023-05-14T00:34:13.140Z,100779.56
2023-05-14T00:36:41.633Z,100783.22
2023-05-14T00:39:10.140Z,100781.63
2023-05-14T00:41:39.667Z,100779.91
2023-05-14T00:44:08.211Z,100779.13
2023-05-14T00:46:36.573Z,100772.16
2023-05-14T00:49:05.513Z,100769.59
2023-05-14T00:51:34.230Z,100780.25
2023-05-14T00:54:03.151Z,100776.81
2023-05-14T00:56:32.437Z,100769.91
2023-05-14T00:59:02.828Z,100771.81
2023-05-14T01:01:31.534Z,100770.25
2023-05-14T01:04:00.439Z,100769.63
2023-05-14T01:06:39.239Z,100764.47
2023-05-14T01:09:18.854Z,100766.41
2023-05-14T01:11:54.860Z,100766.72
2023-05-14T01:14:46.092Z,100761.44
2023-05-14T01:17:15.633Z,100761.03
2023-05-14T01:19:45.930Z,100763.75
2023-05-14T01:22:16.312Z,100767.44
2023-05-14T01:24:44.561Z,100768.56
2023-05-14T01:27:18.237Z,100766.97
2023-05-14T01:29:56.579Z,100768.03
2023-05-14T01:32:26.463Z,100762.03
2023-05-14T01:34:57.732Z,100763.94
2023-05-14T01:37:30.884Z,100768.31
2023-05-14T01:40:01.200Z,100773.59
2023-05-14T01:42:30.503Z,100764.88
2023-05-14T01:44:59.054Z,100765.75
2023-05-14T01:47:27.619Z,100766.63
2023-05-14T01:49:56.629Z,100769.25
2023-05-14T01:52:25.182Z,100769.25
2023-05-14T01:54:55.071Z,100774.56
2023-05-14T01:57:23.634Z,100763.25
2023-05-14T01:59:52.180Z,100774.81
2023-05-14T02:02:20.432Z,100771.41
2023-05-14T02:04:49.001Z,100772.38
2023-05-14T02:07:17.638Z,100761.94
2023-05-14T02:09:47.512Z,100761.13
2023-05-14T02:12:17.387Z,100762.13
2023-05-14T02:14:46.109Z,100765.78
2023-05-14T02:17:15.875Z,100765.03
2023-05-14T02:19:44.126Z,100754.59
2023-05-14T02:22:12.718Z,100755.56
2023-05-14T02:24:41.263Z,100757.38
2023-05-14T02:27:09.838Z,100756.59
2023-05-14T02:29:39.912Z,100758.47
2023-05-14T02:32:08.955Z,100746.44
2023-05-14T02:34:38.584Z,100749.16
2023-05-14T02:37:07.015Z,100741.41
2023-05-14T02:39:35.522Z,100753.81
2023-05-14T02:42:03.750Z,100754.78
2023-05-14T02:44:32.719Z,100753.19
2023-05-14T02:47:02.661Z,100751.50
2023-05-14T02:49:31.318Z,100751.66
2023-05-14T02:52:00.798Z,100742.13
2023-05-14T02:54:29.018Z,100744.84
2023-05-14T02:56:57.590Z,100750.16
2023-05-14T02:59:26.476Z,100746.78
2023-05-14T03:01:55.554Z,100741.59
2023-05-14T03:04:26.012Z,100744.34
2023-05-14T03:06:54.546Z,100744.34
2023-05-14T03:09:22.715Z,100747.94
2023-05-14T03:11:51.801Z,100743.53
2023-05-14T03:14:20.395Z,100740.06
2023-05-14T03:16:48.630Z,100745.41
2023-05-14T03:19:17.501Z,100733.16
2023-05-14T03:21:47.130Z,100733.25
2023-05-14T03:24:15.598Z,100737.75
2023-05-14T03:26:45.835Z,100739.59
2023-05-14T03:29:17.923Z,100737.94
2023-05-14T03:31:46.683Z,100743.19
2023-05-14T03:34:15.235Z,100741.50
2023-05-14T03:36:43.862Z,100745.03
2023-05-14T03:39:15.424Z,100736.28
2023-05-14T03:41:43.993Z,100746.91
2023-05-14T03:44:12.585Z,100742.50
2023-05-14T03:46:41.267Z,100741.63
2023-05-14T03:49:09.855Z,100745.28
2023-05-14T03:51:38.436Z,100748.84
2023-05-14T03:54:08.353Z,100748.94
2023-05-14T03:56:38.091Z,100748.09
2023-05-14T03:59:06.684Z,100749.91
2023-05-14T04:01:35.354Z,100747.34
2023-05-14T04:04:04.579Z,100752.59
2023-05-14T04:06:33.950Z,100751.78
2023-05-14T04:09:04.025Z,100748.25
2023-05-14T04:11:32.539Z,100751.78
2023-05-14T04:14:02.804Z,100754.34
2023-05-14T04:16:31.707Z,100751.78
2023-05-14T04:19:04.736Z,100752.59
2023-05-14T04:21:33.449Z,100749.91
2023-05-14T04:24:01.934Z,100751.50
2023-05-14T04:26:30.458Z,100740.88
2023-05-14T04:29:02.829Z,100753.00
2023-05-14T04:31:32.651Z,100745.84
2023-05-14T04:34:00.868Z,100748.41
2023-05-14T04:36:29.397Z,100750.84
2023-05-14T04:38:57.620Z,100744.63
2023-05-14T04:41:26.167Z,100743.59
2023-05-14T04:43:57.680Z,100742.47
2023-05-14T04:46:26.514Z,100748.47
2023-05-14T04:48:56.576Z,100742.22
2023-05-14T04:51:26.305Z,100739.47
2023-05-14T04:53:54.802Z,100743.78
2023-05-14T04:56:23.306Z,100756.81
2023-05-14T04:58:51.960Z,100746.28
2023-05-14T05:01:20.938Z,100753.28
2023-05-14T05:03:49.781Z,100760.16
2023-05-14T05:06:19.440Z,100758.25
2023-05-14T05:08:47.945Z,100760.78
2023-05-14T05:11:16.478Z,100756.19
2023-05-14T05:13:44.849Z,100754.25
2023-05-14T05:16:13.530Z,100755.84
2023-05-14T05:18:41.860Z,100760.06
2023-05-14T05:21:10.135Z,100763.44
2023-05-14T05:23:39.746Z,100766.69
2023-05-14T05:26:08.355Z,100774.41
2023-05-14T05:28:36.918Z,100767.13
2023-05-14T05:31:05.673Z,100766.81
2023-05-14T05:33:35.160Z,100774.44
2023-05-14T05:36:03.766Z,100775.88
2023-05-14T05:38:32.424Z,100769.44
2023-05-14T05:41:02.281Z,100769.97
2023-05-14T05:43:30.843Z,100765.34
2023-05-14T05:45:59.333Z,100764.16
2023-05-14T05:48:28.194Z,100766.50
2023-05-14T05:50:56.850Z,100762.75
2023-05-14T05:53:25.388Z,100762.53
2023-05-14T05:55:53.866Z,100771.03
2023-05-14T05:58:23.418Z,100758.25
2023-05-14T06:00:51.930Z,100758.94
2023-05-14T06:03:20.958Z,100766.53
2023-05-14T06:05:49.655Z,100762.88
2023-05-14T06:08:18.277Z,100763.41
2023-05-14T06:10:47.691Z,100766.66
2023-05-14T06:13:16.060Z,100778.81
2023-05-14T06:15:45.727Z,100775.03
2023-05-14T06:18:14.228Z,100770.28
2023-05-14T06:20:42.472Z,100774.34
2023-05-14T06:23:12.136Z,100776.59
2023-05-14T06:25:40.407Z,100770.19
2023-05-14T06:28:08.964Z,100752.97
2023-05-14T06:30:37.443Z,100755.91
2023-05-14T06:33:07.317Z,100762.25
2023-05-14T06:35:35.860Z,100765.16
2023-05-14T06:38:04.576Z,100761.88
2023-05-14T06:40:32.967Z,100756.84
2023-05-14T06:43:02.231Z,100752.66
2023-05-14T06:45:33.042Z,100741.69
2023-05-14T06:48:01.846Z,100747.78
2023-05-14T06:50:31.557Z,100750.56
2023-05-14T06:53:00.093Z,100746.41
2023-05-14T06:55:28.747Z,100744.00
2023-05-14T06:57:57.327Z,100741.53
2023-05-14T07:00:26.429Z,100733.94
2023-05-14T07:02:55.240Z,100735.97
2023-05-14T07:05:23.583Z,100732.50
2023-05-14T07:07:53.339Z,100733.22
2023-05-14T07:10:22.104Z,100734.06
2023-05-14T07:12:50.896Z,100732.22
2023-05-14T07:15:19.556Z,100734.75
2023-05-14T07:17:48.103Z,100734.69
2023-05-14T07:20:16.983Z,100731.69
2023-05-14T07:22:45.487Z,100727.13
2023-05-14T07:25:15.880Z,100725.25
2023-05-14T07:27:44.517Z,100727.84
2023-05-14T07:30:13.357Z,100724.31
2023-05-14T07:32:42.177Z,100713.00
2023-05-14T07:35:11.700Z,100711.78
2023-05-14T07:37:40.463Z,100706.19
2023-05-14T07:40:10.411Z,100700.72
2023-05-14T07:42:39.973Z,100701.84
2023-05-14T07:45:10.586Z,100692.91
2023-05-14T07:47:38.868Z,100690.03
2023-05-14T07:50:08.907Z,100682.91
2023-05-14T07:52:37.401Z,100681.34
2023-05-14T07:55:06.878Z,100682.06
2023-05-14T07:57:35.514Z,100685.28
2023-05-14T08:00:07.921Z,100672.13
2023-05-14T08:02:41.065Z,100669.19
2023-05-14T08:05:10.428Z,100663.09
2023-05-14T08:07:38.914Z,100673.91
2023-05-14T08:10:09.008Z,100669.88
2023-05-14T08:12:37.545Z,100676.22
2023-05-14T08:15:09.441Z,100677.91
2023-05-14T08:17:38.029Z,100672.53
2023-05-14T08:20:09.022Z,100669.38
2023-05-14T08:22:37.859Z,100670.38
2023-05-14T08:25:07.763Z,100665.03
2023-05-14T08:27:36.389Z,100673.31
2023-05-14T08:30:07.415Z,100659.34
2023-05-14T08:32:35.995Z,100659.63
2023-05-14T08:35:04.485Z,100662.09
2023-05-14T08:37:33.220Z,100668.91
2023-05-14T08:40:01.972Z,100670.31
2023-05-14T08:42:31.053Z,100669.09
2023-05-14T08:45:02.906Z,100667.63
2023-05-14T08:47:32.856Z,100666.56
2023-05-14T08:50:05.280Z,100658.94
2023-05-14T08:52:34.673Z,100656.69
2023-05-14T08:55:06.363Z,100656.19
2023-05-14T08:57:35.358Z,100651.53
2023-05-14T09:00:08.314Z,100644.56
2023-05-14T09:02:38.448Z,100646.19
2023-05-14T09:05:09.235Z,100640.44
2023-05-14T09:07:38.013Z,100633.13
2023-05-14T09:10:08.887Z,100641.59
2023-05-14T09:12:37.449Z,100643.75
2023-05-14T09:15:07.820Z,100642.41
2023-05-14T09:17:37.532Z,100627.81
2023-05-14T09:20:07.786Z,100633.13
2023-05-14T09:22:36.345Z,100636.78
2023-05-14T09:25:06.802Z,100630.19
2023-05-14T09:27:36.771Z,100629.63
2023-05-14T09:30:13.471Z,100633.03
2023-05-14T09:32:45.797Z,100623.69
2023-05-14T09:35:17.602Z,100621.91
2023-05-14T09:37:48.382Z,100633.75
2023-05-14T09:40:19.308Z,100631.75
2023-05-14T09:42:49.141Z,100633.06
2023-05-14T09:45:18.401Z,100629.72
2023-05-14T09:47:48.260Z,100630.00
2023-05-14T09:50:17.010Z,100629.47
2023-05-14T09:52:45.358Z,100631.16
2023-05-14T09:55:14.372Z,100634.59
2023-05-14T09:57:42.993Z,100639.44
2023-05-14T10:00:12.680Z,100629.59
2023-05-14T10:02:43.913Z,100627.16
2023-05-14T10:05:15.843Z,100624.97
2023-05-14T10:07:49.130Z,100616.06
2023-05-14T10:10:21.287Z,100627.25
2023-05-14T10:12:54.545Z,100633.13
2023-05-14T10:15:29.552Z,100633.63
2023-05-14T10:18:04.547Z,100628.78
2023-05-14T10:20:34.510Z,100628.81
2023-05-14T10:23:03.146Z,100640.84
2023-05-14T10:25:31.750Z,100635.84
2023-05-14T10:28:01.011Z,100636.97
2023-05-14T10:30:29.555Z,100638.59
2023-05-14T10:33:12.722Z,100631.75
2023-05-14T10:36:04.962Z,100623.41
2023-05-14T10:38:36.577Z,100632.38
2023-05-14T10:41:06.330Z,100625.97
2023-05-14T10:43:39.004Z,100626.84
2023-05-14T10:46:08.512Z,100627.69
2023-05-14T10:48:38.938Z,100620.09
2023-05-14T10:51:11.701Z,100620.47
2023-05-14T10:53:41.722Z,100626.19
2023-05-14T10:56:11.697Z,100623.63
2023-05-14T10:58:41.607Z,100622.75
2023-05-14T11:01:11.599Z,100622.75
2023-05-14T11:03:44.852Z,100620.19
2023-05-14T11:06:16.407Z,100621.91
2023-05-14T11:08:46.397Z,100620.41
2023-05-14T11:11:15.097Z,100620.75
2023-05-14T11:13:45.635Z,100617.09
2023-05-14T11:18:54.031Z,100603.13
2023-05-14T11:21:23.848Z,100608.72
2023-05-14T11:23:52.433Z,100610.59
2023-05-14T11:26:21.837Z,100599.06
2023-05-14T11:28:50.316Z,100603.84
2023-05-14T11:31:19.004Z,100604.03
2023-05-14T11:33:47.909Z,100608.47
2023-05-14T11:36:16.510Z,100607.34
2023-05-14T11:38:51.336Z,100592.19
2023-05-14T11:41:21.556Z,100596.28
2023-05-14T11:43:50.745Z,100587.72
2023-05-14T11:46:19.721Z,100591.91
2023-05-14T11:48:48.803Z,100585.88
2023-05-14T11:51:17.363Z,100570.56
2023-05-14T11:53:48.094Z,100585.88
2023-05-14T11:56:16.658Z,100579.09
2023-05-14T11:58:49.889Z,100574.72
2023-05-14T12:01:18.514Z,100573.25
2023-05-14T12:03:47.357Z,100575.41
2023-05-14T12:06:16.029Z,100573.00
2023-05-14T12:08:44.670Z,100570.09
2023-05-14T12:11:14.282Z,100566.91
2023-05-14T12:13:42.851Z,100565.66
2023-05-14T12:16:11.376Z,100560.94
2023-05-14T12:18:39.992Z,100553.66
2023-05-14T12:21:09.079Z,100560.59
2023-05-14T12:23:39.459Z,100552.19
2023-05-14T12:26:10.106Z,100555.53
2023-05-14T12:28:43.407Z,100556.38
2023-05-14T12:31:12.450Z,100545.91
2023-05-14T12:33:40.669Z,100536.81
2023-05-14T12:36:21.128Z,100529.78
2023-05-14T12:38:50.293Z,100524.81
2023-05-14T12:41:18.913Z,100520.91
2023-05-14T12:43:50.091Z,100527.13
2023-05-14T12:46:18.910Z,100533.00
2023-05-14T12:48:47.364Z,100523.06
2023-05-14T12:51:15.963Z,100520.81
2023-05-14T12:53:44.582Z,100513.44
2023-05-14T12:56:13.818Z,100514.56
2023-05-14T12:58:42.879Z,100503.69
2023-05-14T13:01:12.479Z,100502.69
2023-05-14T13:03:41.048Z,100504.63
2023-05-14T13:06:09.554Z,100501.38
2023-05-14T13:08:37.792Z,100502.09
2023-05-14T13:11:06.305Z,100493.22
2023-05-14T13:13:34.788Z,100491.47
2023-05-14T13:16:03.497Z,100492.19
2023-05-14T13:18:33.111Z,100491.81
2023-05-14T13:21:04.229Z,100489.75
2023-05-14T13:23:32.836Z,100489.47
2023-05-14T13:26:01.701Z,100483.22
2023-05-14T13:28:30.426Z,100483.00
2023-05-14T13:31:08.286Z,100475.94
2023-05-14T13:33:41.698Z,100470.72
2023-05-14T13:36:11.773Z,100465.28
2023-05-14T13:38:40.441Z,100456.03
2023-05-14T13:41:09.536Z,100455.84
2023-05-14T13:43:37.914Z,100443.75
2023-05-14T13:46:06.993Z,100452.03
2023-05-14T13:48:37.241Z,100444.34
2023-05-14T13:51:06.868Z,100440.88
2023-05-14T13:53:35.361Z,100440.75
2023-05-14T13:56:03.645Z,100433.75
2023-05-14T13:58:31.955Z,100428.84
2023-05-14T14:01:00.595Z,100437.28
2023-05-14T14:03:29.174Z,100419.78
2023-05-14T14:05:57.431Z,100414.56
2023-05-14T14:08:27.098Z,100415.72
2023-05-14T14:10:55.715Z,100415.44
2023-05-14T14:13:24.565Z,100411.69
2023-05-14T14:15:53.220Z,100407.97
2023-05-14T14:18:21.839Z,100403.72
2023-05-14T14:20:50.039Z,100406.50
2023-05-14T14:23:18.204Z,100395.94
2023-05-14T14:25:47.756Z,100392.03
2023-05-14T14:28:16.397Z,100395.69
2023-05-14T14:30:44.756Z,100387.94
2023-05-14T14:33:13.048Z,100389.75
2023-05-14T14:35:41.639Z,100389.91
2023-05-14T14:38:09.889Z,100381.22
2023-05-14T14:40:38.153Z,100374.22
2023-05-14T14:43:07.695Z,100375.38
2023-05-14T14:45:36.300Z,100376.59
2023-05-14T14:48:25.105Z,100372.16
2023-05-14T14:50:54.130Z,100373.03
2023-05-14T14:53:23.368Z,100379.28
2023-05-14T14:55:52.697Z,100371.34
2023-05-14T14:58:22.814Z,100368.00
2023-05-14T15:00:55.928Z,100375.63
2023-05-14T15:03:25.546Z,100368.41
2023-05-14T15:05:54.324Z,100365.97
2023-05-14T15:08:28.639Z,100367.00
2023-05-14T15:10:57.377Z,100366.63
2023-05-14T15:13:27.035Z,100369.53
2023-05-14T15:15:55.425Z,100373.34
2023-05-14T15:18:23.641Z,100368.00
2023-05-14T15:20:52.711Z,100364.38
2023-05-14T15:23:21.010Z,100364.50
2023-05-14T15:25:49.957Z,100349.34
2023-05-14T15:28:18.473Z,100361.63
2023-05-14T15:30:49.487Z,100360.53
2023-05-14T15:33:19.336Z,100359.28
2023-05-14T15:35:48.113Z,100358.47
2023-05-14T15:38:16.389Z,100351.75
2023-05-14T15:40:44.928Z,100356.63
2023-05-14T15:43:13.506Z,100357.22
2023-05-14T15:45:41.979Z,100359.84
2023-05-14T15:48:11.721Z,100357.19
2023-05-14T15:50:40.051Z,100346.91
2023-05-14T15:53:08.384Z,100346.75
2023-05-14T15:55:36.934Z,100351.47
2023-05-14T15:58:05.496Z,100344.75
2023-05-14T16:00:34.032Z,100347.66
2023-05-14T16:03:03.137Z,100348.25
2023-05-14T16:05:32.878Z,100344.81
2023-05-14T16:08:01.110Z,100339.03
2023-05-14T16:10:29.285Z,100340.47
2023-05-14T16:12:57.486Z,100341.34
2023-05-14T16:15:25.786Z,100341.00
2023-05-14T16:17:54.379Z,100334.59
2023-05-14T16:20:23.369Z,100335.31
2023-05-14T16:22:53.158Z,100336.72
2023-05-14T16:25:21.365Z,100339.28
2023-05-14T16:27:49.933Z,100338.22
2023-05-14T16:30:18.641Z,100336.81
2023-05-14T16:32:49.403Z,100334.38
2023-05-14T16:35:18.035Z,100336.16
2023-05-14T16:37:46.535Z,100336.25
2023-05-14T16:40:16.486Z,100334.22
2023-05-14T16:42:47.791Z,100328.19
2023-05-14T16:45:17.923Z,100333.34
2023-05-14T16:47:46.142Z,100332.97
2023-05-14T16:50:14.707Z,100333.78
2023-05-14T16:52:43.234Z,100325.34
2023-05-14T16:55:11.945Z,100315.50
2023-05-14T16:57:41.500Z,100319.69
2023-05-14T17:00:11.899Z,100326.06
2023-05-14T17:02:40.243Z,100322.47
2023-05-14T17:05:09.942Z,100319.75
2023-05-14T17:07:39.477Z,100323.81
2023-05-14T17:10:09.110Z,100325.69
2023-05-14T17:12:37.642Z,100320.25
2023-05-14T17:15:09.755Z,100321.63
2023-05-14T17:17:38.154Z,100327.47
2023-05-14T17:20:08.077Z,100324.47
2023-05-14T17:22:36.456Z,100324.19
2023-05-14T17:25:05.465Z,100333.84
2023-05-14T17:27:33.787Z,100324.25
2023-05-14T17:30:02.392Z,100325.66
2023-05-14T17:32:32.097Z,100329.47
2023-05-14T17:35:00.710Z,100332.44
2023-05-14T17:37:29.262Z,100335.53
2023-05-14T17:39:57.749Z,100326.78
2023-05-14T17:42:26.294Z,100338.81
2023-05-14T17:44:54.853Z,100333.38
2023-05-14T17:47:23.107Z,100348.78
2023-05-14T17:49:52.756Z,100349.81
2023-05-14T17:52:21.457Z,100365.19
2023-05-14T17:54:50.034Z,100359.03
2023-05-14T17:57:18.480Z,100361.19
2023-05-14T17:59:47.014Z,100361.03
2023-05-14T18:02:15.482Z,100372.31
2023-05-14T18:04:43.962Z,100374.50
2023-05-14T18:07:13.754Z,100374.50
2023-05-14T18:09:41.983Z,100372.44
2023-05-14T18:12:10.794Z,100377.31
2023-05-14T18:14:39.298Z,100376.41
2023-05-14T18:17:07.673Z,100378.44
2023-05-14T18:19:36.558Z,100377.78
2023-05-14T18:22:05.187Z,100381.63
2023-05-14T18:24:34.815Z,100380.81
2023-05-14T18:27:03.386Z,100384.78
2023-05-14T18:29:31.635Z,100390.09
2023-05-14T18:32:00.150Z,100394.41
2023-05-14T18:34:28.431Z,100400.53
2023-05-14T18:36:57.550Z,100399.38
2023-05-14T18:39:26.042Z,100398.13
2023-05-14T18:41:56.615Z,100399.41
2023-05-14T18:44:25.180Z,100404.09
2023-05-14T18:46:53.781Z,100406.25
2023-05-14T18:49:22.284Z,100412.84
2023-05-14T18:51:50.521Z,100419.47
2023-05-14T18:54:19.036Z,100414.56
2023-05-14T18:56:47.876Z,100417.75
2023-05-14T18:59:17.530Z,100417.13
2023-05-14T19:01:45.759Z,100414.97
2023-05-14T19:04:14.280Z,100424.47
2023-05-14T19:06:42.928Z,100425.84
2023-05-14T19:09:11.255Z,100430.06
2023-05-14T19:11:39.769Z,100433.38
2023-05-14T19:14:09.292Z,100426.22
2023-05-14T19:16:38.943Z,100434.06
2023-05-14T19:19:07.988Z,100439.25
2023-05-14T19:21:36.674Z,100436.41
2023-05-14T19:24:05.977Z,100431.56
2023-05-14T19:26:34.638Z,100435.47
2023-05-14T19:29:03.245Z,100440.28
2023-05-14T19:31:31.533Z,100442.56
2023-05-14T19:34:03.054Z,100434.13
2023-05-14T19:36:32.536Z,100441.84
2023-05-14T19:39:01.682Z,100442.22
2023-05-14T19:41:30.600Z,100442.59
2023-05-14T19:43:59.152Z,100450.75
2023-05-14T19:46:27.706Z,100452.03
2023-05-14T19:48:55.899Z,100461.06
2023-05-14T19:51:26.178Z,100462.94
2023-05-14T19:53:54.749Z,100457.81
2023-05-14T19:56:24.667Z,100456.13
2023-05-14T19:58:54.293Z,100459.69
2023-05-14T20:01:22.988Z,100459.91
2023-05-14T20:03:51.550Z,100457.53
2023-05-14T20:06:19.791Z,100455.13
2023-05-14T20:08:49.430Z,100453.41
2023-05-14T20:11:19.347Z,100453.59
2023-05-14T20:13:47.845Z,100446.75
2023-05-14T20:16:16.858Z,100446.94
2023-05-14T20:18:45.710Z,100445.44
2023-05-14T20:21:14.677Z,100450.94
2023-05-14T20:23:43.224Z,100449.25
2023-05-14T20:26:12.960Z,100449.25
2023-05-14T20:28:43.326Z,100451.13
2023-05-14T20:31:11.877Z,100440.50
2023-05-14T20:33:40.658Z,100438.81
2023-05-14T20:36:09.157Z,100432.78
2023-05-14T20:38:37.350Z,100439.19
2023-05-14T20:41:05.875Z,100439.34
2023-05-14T20:43:35.640Z,100439.72
2023-05-14T20:46:05.804Z,100441.13
2023-05-14T20:48:34.166Z,100435.31
2023-05-14T20:51:04.838Z,100437.22
2023-05-14T20:53:33.437Z,100432.09
2023-05-14T20:56:02.057Z,100431.41
2023-05-14T20:58:30.563Z,100429.03
2023-05-14T21:01:00.522Z,100430.06
2023-05-14T21:03:29.263Z,100427.72
2023-05-14T21:05:57.624Z,100422.56
2023-05-14T21:08:25.885Z,100412.13
2023-05-14T21:10:54.157Z,100412.28
2023-05-14T21:13:22.350Z,100406.41
2023-05-14T21:15:51.121Z,100418.16
2023-05-14T21:18:20.715Z,100412.25
2023-05-14T21:20:49.226Z,100411.81
2023-05-14T21:23:19.454Z,100410.47
2023-05-14T21:25:47.993Z,100407.22
2023-05-14T21:28:16.486Z,100409.28
2023-05-14T21:30:45.011Z,100411.50
2023-05-14T21:33:13.729Z,100404.94
2023-05-14T21:35:43.359Z,100403.69
2023-05-14T21:38:12.162Z,100405.88
2023-05-14T21:40:40.371Z,100409.06
2023-05-14T21:43:08.878Z,100408.44
2023-05-14T21:45:37.482Z,100408.78
2023-05-14T21:48:06.738Z,100405.53
2023-05-14T21:50:35.314Z,100393.38
2023-05-14T21:53:05.174Z,100395.25
2023-05-14T21:55:33.847Z,100398.25
2023-05-14T21:58:02.908Z,100404.97
2023-05-14T22:00:31.814Z,100399.22
2023-05-14T22:03:00.549Z,100396.03
2023-05-14T22:05:29.193Z,100387.56
2023-05-14T22:07:57.884Z,100389.59
2023-05-14T22:10:27.456Z,100391.72
2023-05-14T22:12:55.926Z,100386.75
2023-05-14T22:15:24.622Z,100390.47
2023-05-14T22:17:53.350Z,100390.78
2023-05-14T22:20:21.558Z,100386.69
2023-05-14T22:22:50.118Z,100391.28
2023-05-14T22:25:18.702Z,100381.00
2023-05-14T22:27:48.266Z,100378.47
2023-05-14T22:30:16.936Z,100375.19
2023-05-14T22:32:45.251Z,100375.50
2023-05-14T22:35:14.129Z,100374.72
2023-05-14T22:37:42.359Z,100372.22
2023-05-14T22:40:11.728Z,100368.78
2023-05-14T22:42:40.235Z,100368.09
2023-05-14T22:45:11.392Z,100370.84
2023-05-14T22:47:40.157Z,100366.56
2023-05-14T22:50:11.532Z,100370.06
2023-05-14T22:52:40.236Z,100367.41
2023-05-14T22:55:09.593Z,100366.47
2023-05-14T22:57:38.570Z,100362.97
2023-05-14T23:00:10.400Z,100362.97
2023-05-14T23:02:39.329Z,100364.91
2023-05-14T23:05:09.488Z,100366.00
2023-05-14T23:07:38.140Z,100358.34
2023-05-14T23:10:07.470Z,100361.06
2023-05-14T23:12:36.154Z,100355.09
2023-05-14T23:15:05.216Z,100356.09
2023-05-14T23:17:35.150Z,100357.19
2023-05-14T23:20:05.783Z,100353.13
2023-05-14T23:22:34.279Z,100358.69
2023-05-14T23:25:02.838Z,100350.38
2023-05-14T23:27:31.352Z,100352.38
2023-05-14T23:29:59.909Z,100350.81
2023-05-14T23:32:28.417Z,100350.97
2023-05-14T23:35:00.150Z,100349.41
2023-05-14T23:37:28.990Z,100349.63
2023-05-14T23:39:57.496Z,100347.97
2023-05-14T23:42:26.086Z,100343.69
2023-05-14T23:44:54.606Z,100348.13
2023-05-14T23:47:23.151Z,100345.59
2023-05-14T23:49:51.770Z,100342.84
2023-05-14T23:52:21.503Z,100344.50
2023-05-14T23:54:50.015Z,100342.78
2023-05-14T23:57:18.615Z,100344.56
2023-05-14T23:59:47.144Z,100346.28
